sensor_id;sensor_type;location;lat;lon;timestamp;pressure;altitude;pressure_sealevel;temperature;humidity
74722;BME280;63470;49.826;6.740;2023-04-15T00:01:37;99320.85;;;5.77;55.15
74722;BME280;63470;49.826;6.740;2023-04-15T00:04:08;99317.61;;;5.81;55.04
74722;BME280;63470;49.826;6.740;2023-04-15T00:06:39;99323.66;;;5.84;54.99
74722;BME280;63470;49.826;6.740;2023-04-15T00:09:08;99324.06;;;5.86;55.05
74722;BME280;63470;49.826;6.740;2023-04-15T00:11:39;99320.93;;;5.88;55.15
74722;BME280;63470;49.826;6.740;2023-04-15T00:14:10;99315.75;;;5.89;55.24
74722;BME280;63470;49.826;6.740;2023-04-15T00:16:46;99313.92;;;5.91;55.25
74722;BME280;63470;49.826;6.740;2023-04-15T00:19:34;99308.03;;;5.91;55.31
74722;BME280;63470;49.826;6.740;2023-04-15T00:21:41;99305.57;;;5.91;55.37
74722;BME280;63470;49.826;6.740;2023-04-15T00:24:13;99306.94;;;5.93;55.37
74722;BME280;63470;49.826;6.740;2023-04-15T00:26:42;99309.48;;;5.98;55.24
74722;BME280;63470;49.826;6.740;2023-04-15T00:29:13;99312.46;;;6.03;55.17
74722;BME280;63470;49.826;6.740;2023-04-15T00:31:44;99308.48;;;6.07;55.15
74722;BME280;63470;49.826;6.740;2023-04-15T00:34:14;99306.73;;;6.10;55.14
74722;BME280;63470;49.826;6.740;2023-04-15T00:36:44;99302.78;;;6.10;55.14
74722;BME280;63470;49.826;6.740;2023-04-15T00:39:21;99296.06;;;6.11;55.11
74722;BME280;63470;49.826;6.740;2023-04-15T00:41:50;99296.63;;;6.10;55.16
74722;BME280;63470;49.826;6.740;2023-04-15T00:44:16;99293.25;;;6.07;55.24
74722;BME280;63470;49.826;6.740;2023-04-15T00:46:47;99289.10;;;6.06;55.24
74722;BME280;63470;49.826;6.740;2023-04-15T00:49:19;99288.39;;;6.04;55.26
74722;BME280;63470;49.826;6.740;2023-04-15T00:51:47;99288.66;;;6.00;55.30
74722;BME280;63470;49.826;6.740;2023-04-15T00:54:18;99289.31;;;5.94;55.42
74722;BME280;63470;49.826;6.740;2023-04-15T00:56:48;99294.08;;;5.87;55.51
74722;BME280;63470;49.826;6.740;2023-04-15T00:59:19;99301.70;;;5.77;55.63
74722;BME280;63470;49.826;6.740;2023-04-15T01:01:55;99305.33;;;5.66;55.71
74722;BME280;63470;49.826;6.740;2023-04-15T01:04:20;99305.46;;;5.54;55.92
74722;BME280;63470;49.826;6.740;2023-04-15T01:06:54;99296.24;;;5.44;55.95
74722;BME280;63470;49.826;6.740;2023-04-15T01:09:21;99299.70;;;5.34;55.86
74722;BME280;63470;49.826;6.740;2023-04-15T01:11:55;99300.30;;;5.24;55.84
74722;BME280;63470;49.826;6.740;2023-04-15T01:14:22;99298.19;;;5.11;55.84
74722;BME280;63470;49.826;6.740;2023-04-15T01:16:56;99296.69;;;4.98;55.91
74722;BME280;63470;49.826;6.740;2023-04-15T01:19:27;99296.03;;;4.87;56.03
74722;BME280;63470;49.826;6.740;2023-04-15T01:21:55;99293.61;;;4.76;56.11
74722;BME280;63470;49.826;6.740;2023-04-15T01:24:29;99294.47;;;4.67;56.23
74722;BME280;63470;49.826;6.740;2023-04-15T01:26:58;99295.62;;;4.68;56.19
74722;BME280;63470;49.826;6.740;2023-04-15T01:29:30;99296.37;;;4.68;56.05
74722;BME280;63470;49.826;6.740;2023-04-15T01:32:02;99298.45;;;4.72;55.89
74722;BME280;63470;49.826;6.740;2023-04-15T01:34:32;99294.00;;;4.75;55.78
74722;BME280;63470;49.826;6.740;2023-04-15T01:36:57;99292.50;;;4.80;55.71
74722;BME280;63470;49.826;6.740;2023-04-15T01:39:31;99293.03;;;4.86;55.65
74722;BME280;63470;49.826;6.740;2023-04-15T01:41:58;99289.03;;;4.93;55.61
74722;BME280;63470;49.826;6.740;2023-04-15T01:44:31;99293.14;;;5.02;55.51
74722;BME280;63470;49.826;6.740;2023-04-15T01:47:01;99294.52;;;5.12;55.48
74722;BME280;63470;49.826;6.740;2023-04-15T01:49:34;99295.75;;;5.20;55.46
74722;BME280;63470;49.826;6.740;2023-04-15T01:52:00;99296.84;;;5.27;55.46
74722;BME280;63470;49.826;6.740;2023-04-15T01:54:29;99295.39;;;5.33;55.45
74722;BME280;63470;49.826;6.740;2023-04-15T01:57:00;99294.20;;;5.37;55.46
74722;BME280;63470;49.826;6.740;2023-04-15T01:59:36;99290.09;;;5.39;55.47
74722;BME280;63470;49.826;6.740;2023-04-15T02:02:03;99288.19;;;5.40;55.47
74722;BME280;63470;49.826;6.740;2023-04-15T02:04:33;99286.24;;;5.38;55.46
74722;BME280;63470;49.826;6.740;2023-04-15T02:07:01;99280.86;;;5.36;55.49
74722;BME280;63470;49.826;6.740;2023-04-15T02:09:34;99280.64;;;5.34;55.46
74722;BME280;63470;49.826;6.740;2023-04-15T02:12:05;99281.50;;;5.30;55.48
74722;BME280;63470;49.826;6.740;2023-04-15T02:14:36;99282.20;;;5.27;55.47
74722;BME280;63470;49.826;6.740;2023-04-15T02:17:08;99286.38;;;5.27;55.39
74722;BME280;63470;49.826;6.740;2023-04-15T02:19:39;99291.97;;;5.23;55.43
74722;BME280;63470;49.826;6.740;2023-04-15T02:22:04;99285.08;;;5.17;55.47
74722;BME280;63470;49.826;6.740;2023-04-15T02:24:35;99287.09;;;5.09;55.57
74722;BME280;63470;49.826;6.740;2023-04-15T02:27:06;99287.49;;;5.01;55.68
74722;BME280;63470;49.826;6.740;2023-04-15T02:29:42;99286.77;;;4.92;55.73
74722;BME280;63470;49.826;6.740;2023-04-15T02:32:10;99292.29;;;4.86;55.80
74722;BME280;63470;49.826;6.740;2023-04-15T02:34:45;99293.65;;;4.80;55.86
74722;BME280;63470;49.826;6.740;2023-04-15T02:37:11;99296.84;;;4.77;55.87
74722;BME280;63470;49.826;6.740;2023-04-15T02:39:38;99297.20;;;4.73;55.89
74722;BME280;63470;49.826;6.740;2023-04-15T02:42:11;99296.99;;;4.69;55.89
74722;BME280;63470;49.826;6.740;2023-04-15T02:44:44;99293.01;;;4.68;55.81
74722;BME280;63470;49.826;6.740;2023-04-15T02:47:11;99289.06;;;4.62;55.77
74722;BME280;63470;49.826;6.740;2023-04-15T02:49:40;99292.69;;;4.56;55.82
74722;BME280;63470;49.826;6.740;2023-04-15T02:52:16;99292.31;;;4.49;55.87
74722;BME280;63470;49.826;6.740;2023-04-15T02:54:41;99297.00;;;4.45;55.85
74722;BME280;63470;49.826;6.740;2023-04-15T02:57:17;99299.86;;;4.46;55.80
74722;BME280;63470;49.826;6.740;2023-04-15T02:59:47;99303.62;;;4.46;55.78
74722;BME280;63470;49.826;6.740;2023-04-15T03:02:18;99305.30;;;4.49;55.76
74722;BME280;63470;49.826;6.740;2023-04-15T03:04:43;99305.70;;;4.52;55.76
74722;BME280;63470;49.826;6.740;2023-04-15T03:07:18;99307.97;;;4.56;55.76
74722;BME280;63470;49.826;6.740;2023-04-15T03:09:49;99310.20;;;4.61;55.71
74722;BME280;63470;49.826;6.740;2023-04-15T03:12:20;99306.77;;;4.64;55.70
74722;BME280;63470;49.826;6.740;2023-04-15T03:14:45;99306.50;;;4.65;55.71
74722;BME280;63470;49.826;6.740;2023-04-15T03:17:19;99305.94;;;4.66;55.73
74722;BME280;63470;49.826;6.740;2023-04-15T03:19:51;99308.33;;;4.64;55.74
74722;BME280;63470;49.826;6.740;2023-04-15T03:22:19;99311.91;;;4.63;55.78
74722;BME280;63470;49.826;6.740;2023-04-15T03:24:47;99312.26;;;4.59;55.81
74722;BME280;63470;49.826;6.740;2023-04-15T03:27:21;99316.14;;;4.53;55.94
74722;BME280;63470;49.826;6.740;2023-04-15T03:29:50;99315.52;;;4.47;56.06
74722;BME280;63470;49.826;6.740;2023-04-15T03:32:20;99315.23;;;4.43;56.08
74722;BME280;63470;49.826;6.740;2023-04-15T03:34:53;99316.87;;;4.41;56.08
74722;BME280;63470;49.826;6.740;2023-04-15T03:37:22;99323.84;;;4.37;56.10
74722;BME280;63470;49.826;6.740;2023-04-15T03:39:54;99322.70;;;4.37;56.07
74722;BME280;63470;49.826;6.740;2023-04-15T03:42:22;99328.41;;;4.37;56.00
74722;BME280;63470;49.826;6.740;2023-04-15T03:44:50;99328.26;;;4.38;55.94
74722;BME280;63470;49.826;6.740;2023-04-15T03:47:20;99322.38;;;4.37;55.92
74722;BME280;63470;49.826;6.740;2023-04-15T03:49:51;99321.38;;;4.36;55.94
74722;BME280;63470;49.826;6.740;2023-04-15T03:52:24;99321.97;;;4.35;55.94
74722;BME280;63470;49.826;6.740;2023-04-15T03:54:52;99323.70;;;4.31;56.02
74722;BME280;63470;49.826;6.740;2023-04-15T03:57:23;99331.41;;;4.28;56.09
74722;BME280;63470;49.826;6.740;2023-04-15T03:59:57;99327.98;;;4.25;56.11
74722;BME280;63470;49.826;6.740;2023-04-15T04:02:27;99330.84;;;4.25;56.10
74722;BME280;63470;49.826;6.740;2023-04-15T04:04:55;99331.16;;;4.26;56.09
74722;BME280;63470;49.826;6.740;2023-04-15T04:07:26;99333.77;;;4.29;56.05
74722;BME280;63470;49.826;6.740;2023-04-15T04:09:57;99334.42;;;4.30;56.05
74722;BME280;63470;49.826;6.740;2023-04-15T04:12:32;99335.23;;;4.30;56.10
74722;BME280;63470;49.826;6.740;2023-04-15T04:14:58;99334.48;;;4.31;56.07
74722;BME280;63470;49.826;6.740;2023-04-15T04:17:30;99338.64;;;4.33;56.02
74722;BME280;63470;49.826;6.740;2023-04-15T04:20:04;99335.71;;;4.34;56.00
74722;BME280;63470;49.826;6.740;2023-04-15T04:22:38;99344.11;;;4.35;55.97
74722;BME280;63470;49.826;6.740;2023-04-15T04:25:05;99343.59;;;4.37;55.93
74722;BME280;63470;49.826;6.740;2023-04-15T04:27:31;99347.19;;;4.36;55.93
74722;BME280;63470;49.826;6.740;2023-04-15T04:30:07;99346.48;;;4.36;55.97
74722;BME280;63470;49.826;6.740;2023-04-15T04:32:37;99346.48;;;4.36;55.99
74722;BME280;63470;49.826;6.740;2023-04-15T04:35:07;99350.88;;;4.35;56.04
74722;BME280;63470;49.826;6.740;2023-04-15T04:37:35;99350.39;;;4.35;56.07
74722;BME280;63470;49.826;6.740;2023-04-15T04:40:08;99354.48;;;4.36;56.07
74722;BME280;63470;49.826;6.740;2023-04-15T04:42:39;99356.43;;;4.38;56.09
74722;BME280;63470;49.826;6.740;2023-04-15T04:45:09;99358.30;;;4.39;56.07
74722;BME280;63470;49.826;6.740;2023-04-15T04:47:36;99353.54;;;4.41;56.11
74722;BME280;63470;49.826;6.740;2023-04-15T04:50:10;99357.04;;;4.43;56.05
74722;BME280;63470;49.826;6.740;2023-04-15T04:52:40;99355.41;;;4.46;55.94
74722;BME280;63470;49.826;6.740;2023-04-15T04:55:13;99358.50;;;4.48;55.88
74722;BME280;63470;49.826;6.740;2023-04-15T04:57:39;99357.77;;;4.48;55.87
74722;BME280;63470;49.826;6.740;2023-04-15T05:00:10;99361.34;;;4.49;55.84
74722;BME280;63470;49.826;6.740;2023-04-15T05:02:46;99365.11;;;4.50;55.84
74722;BME280;63470;49.826;6.740;2023-04-15T05:05:15;99364.27;;;4.51;55.81
74722;BME280;63470;49.826;6.740;2023-04-15T05:07:45;99365.73;;;4.53;55.83
74722;BME280;63470;49.826;6.740;2023-04-15T05:10:13;99366.05;;;4.55;55.89
74722;BME280;63470;49.826;6.740;2023-04-15T05:12:41;99363.41;;;4.60;55.83
74722;BME280;63470;49.826;6.740;2023-04-15T05:15:16;99362.71;;;4.65;55.78
74722;BME280;63470;49.826;6.740;2023-04-15T05:17:45;99370.36;;;4.71;55.79
74722;BME280;63470;49.826;6.740;2023-04-15T05:20:18;99375.30;;;4.78;55.84
74722;BME280;63470;49.826;6.740;2023-04-15T05:22:43;99371.96;;;4.87;55.93
74722;BME280;63470;49.826;6.740;2023-04-15T05:25:14;99375.16;;;4.98;55.97
74722;BME280;63470;49.826;6.740;2023-04-15T05:27:44;99371.45;;;5.51;55.58
74722;BME280;63470;49.826;6.740;2023-04-15T05:30:15;99376.11;;;6.41;55.44
74722;BME280;63470;49.826;6.740;2023-04-15T05:32:45;99372.89;;;7.16;55.47
74722;BME280;63470;49.826;6.740;2023-04-15T05:35:16;99371.89;;;7.87;55.39
74722;BME280;63470;49.826;6.740;2023-04-15T05:37:46;99372.33;;;8.56;55.18
74722;BME280;63470;49.826;6.740;2023-04-15T05:40:22;99371.17;;;8.97;55.17
74722;BME280;63470;49.826;6.740;2023-04-15T05:42:52;99366.78;;;8.94;55.14
74722;BME280;63470;49.826;6.740;2023-04-15T05:45:20;99370.80;;;9.08;55.09
74722;BME280;63470;49.826;6.740;2023-04-15T05:47:58;99367.89;;;9.29;55.02
74722;BME280;63470;49.826;6.740;2023-04-15T05:50:22;99370.84;;;9.40;54.92
74722;BME280;63470;49.826;6.740;2023-04-15T05:52:52;99372.47;;;9.50;55.00
74722;BME280;63470;49.826;6.740;2023-04-15T05:55:23;99373.39;;;9.41;55.13
74722;BME280;63470;49.826;6.740;2023-04-15T05:57:54;99377.69;;;9.16;55.48
74722;BME280;63470;49.826;6.740;2023-04-15T06:00:25;99381.48;;;8.87;55.72
74722;BME280;63470;49.826;6.740;2023-04-15T06:02:58;99380.06;;;8.59;56.13
74722;BME280;63470;49.826;6.740;2023-04-15T06:05:26;99381.69;;;8.33;56.35
74722;BME280;63470;49.826;6.740;2023-04-15T06:07:54;99382.80;;;8.10;56.50
74722;BME280;63470;49.826;6.740;2023-04-15T06:10:28;99386.92;;;7.86;56.61
74722;BME280;63470;49.826;6.740;2023-04-15T06:12:58;99388.41;;;7.68;56.74
74722;BME280;63470;49.826;6.740;2023-04-15T06:15:28;99396.29;;;7.69;56.60
74722;BME280;63470;49.826;6.740;2023-04-15T06:17:56;99398.06;;;7.70;56.51
74722;BME280;63470;49.826;6.740;2023-04-15T06:20:29;99404.78;;;7.65;56.55
74722;BME280;63470;49.826;6.740;2023-04-15T06:22:57;99400.86;;;7.61;56.71
74722;BME280;63470;49.826;6.740;2023-04-15T06:25:28;99402.30;;;7.73;56.56
74722;BME280;63470;49.826;6.740;2023-04-15T06:28:00;99406.70;;;7.64;56.88
74722;BME280;63470;49.826;6.740;2023-04-15T06:30:29;99406.44;;;7.75;56.75
74722;BME280;63470;49.826;6.740;2023-04-15T06:33:02;99403.75;;;7.82;56.63
74722;BME280;63470;49.826;6.740;2023-04-15T06:35:35;99409.05;;;7.81;56.65
74722;BME280;63470;49.826;6.740;2023-04-15T06:38:02;99405.23;;;7.82;56.63
74722;BME280;63470;49.826;6.740;2023-04-15T06:40:33;99407.45;;;7.83;56.54
74722;BME280;63470;49.826;6.740;2023-04-15T06:43:01;99407.50;;;7.93;56.35
74722;BME280;63470;49.826;6.740;2023-04-15T06:45:32;99413.20;;;8.13;56.12
74722;BME280;63470;49.826;6.740;2023-04-15T06:48:03;99411.15;;;8.27;56.06
74722;BME280;63470;49.826;6.740;2023-04-15T06:50:35;99412.59;;;8.45;56.02
74722;BME280;63470;49.826;6.740;2023-04-15T06:53:03;99412.62;;;8.67;56.09
74722;BME280;63470;49.826;6.740;2023-04-15T06:55:34;99410.83;;;9.13;55.72
74722;BME280;63470;49.826;6.740;2023-04-15T06:58:06;99416.52;;;9.53;55.21
74722;BME280;63470;49.826;6.740;2023-04-15T07:00:41;99413.73;;;9.59;55.44
74722;BME280;63470;49.826;6.740;2023-04-15T07:03:05;99413.67;;;9.63;55.92
74722;BME280;63470;49.826;6.740;2023-04-15T07:05:36;99414.89;;;10.01;55.70
74722;BME280;63470;49.826;6.740;2023-04-15T07:08:07;99414.38;;;10.47;55.25
74722;BME280;63470;49.826;6.740;2023-04-15T07:10:37;99418.72;;;10.90;54.85
74722;BME280;63470;49.826;6.740;2023-04-15T07:13:11;99416.45;;;11.20;54.67
74722;BME280;63470;49.826;6.740;2023-04-15T07:15:37;99415.32;;;11.12;54.95
74722;BME280;63470;49.826;6.740;2023-04-15T07:18:09;99420.66;;;11.02;55.15
74722;BME280;63470;49.826;6.740;2023-04-15T07:20:41;99421.15;;;11.15;54.98
74722;BME280;63470;49.826;6.740;2023-04-15T07:23:09;99422.68;;;11.50;54.28
74722;BME280;63470;49.826;6.740;2023-04-15T07:25:43;99420.44;;;11.51;54.28
74722;BME280;63470;49.826;6.740;2023-04-15T07:28:11;99419.59;;;11.46;54.58
74722;BME280;63470;49.826;6.740;2023-04-15T07:30:40;99423.27;;;11.71;54.51
74722;BME280;63470;49.826;6.740;2023-04-15T07:33:13;99427.50;;;11.99;54.03
74722;BME280;63470;49.826;6.740;2023-04-15T07:35:43;99420.39;;;12.13;53.89
74722;BME280;63470;49.826;6.740;2023-04-15T07:38:15;99417.64;;;12.18;54.22
74722;BME280;63470;49.826;6.740;2023-04-15T07:40:42;99422.52;;;12.39;54.45
74722;BME280;63470;49.826;6.740;2023-04-15T07:43:13;99424.22;;;12.82;54.42
74722;BME280;63470;49.826;6.740;2023-04-15T07:45:41;99425.20;;;13.43;53.76
74722;BME280;63470;49.826;6.740;2023-04-15T07:48:12;99425.42;;;13.86;53.27
74722;BME280;63470;49.826;6.740;2023-04-15T07:50:42;99427.47;;;14.41;52.55
74722;BME280;63470;49.826;6.740;2023-04-15T07:53:13;99426.61;;;14.80;52.01
74722;BME280;63470;49.826;6.740;2023-04-15T07:55:43;99430.31;;;15.00;52.13
74722;BME280;63470;49.826;6.740;2023-04-15T07:58:14;99428.62;;;14.97;52.54
74722;BME280;63470;49.826;6.740;2023-04-15T08:00:44;99426.95;;;14.94;52.85
74722;BME280;63470;49.826;6.740;2023-04-15T08:03:15;99432.17;;;15.15;52.69
74722;BME280;63470;49.826;6.740;2023-04-15T08:05:47;99424.38;;;15.34;52.63
74722;BME280;63470;49.826;6.740;2023-04-15T08:08:16;99426.73;;;15.66;52.27
74722;BME280;63470;49.826;6.740;2023-04-15T08:10:47;99426.44;;;15.98;51.87
74722;BME280;63470;49.826;6.740;2023-04-15T08:13:17;99428.88;;;16.11;51.80
74722;BME280;63470;49.826;6.740;2023-04-15T08:18:19;99431.55;;;15.91;52.03
74722;BME280;63470;49.826;6.740;2023-04-15T08:20:49;99435.16;;;15.62;52.45
74722;BME280;63470;49.826;6.740;2023-04-15T08:23:20;99434.07;;;15.63;52.53
74722;BME280;63470;49.826;6.740;2023-04-15T08:25:50;99436.50;;;15.64;52.58
74722;BME280;63470;49.826;6.740;2023-04-15T08:28:21;99441.58;;;15.50;52.84
74722;BME280;63470;49.826;6.740;2023-04-15T08:30:52;99445.12;;;15.38;53.14
74722;BME280;63470;49.826;6.740;2023-04-15T08:33:22;99443.78;;;15.28;53.29
74722;BME280;63470;49.826;6.740;2023-04-15T08:35:53;99447.70;;;15.45;53.24
74722;BME280;63470;49.826;6.740;2023-04-15T08:38:23;99445.82;;;15.72;53.31
74722;BME280;63470;49.826;6.740;2023-04-15T08:40:55;99446.44;;;16.24;52.98
74722;BME280;63470;49.826;6.740;2023-04-15T08:43:32;99440.24;;;16.92;52.58
74722;BME280;63470;49.826;6.740;2023-04-15T08:45:55;99441.07;;;17.43;52.29
74722;BME280;63470;49.826;6.740;2023-04-15T08:48:31;99439.55;;;17.84;52.16
74722;BME280;63470;49.826;6.740;2023-04-15T08:50:55;99440.68;;;18.34;51.93
74722;BME280;63470;49.826;6.740;2023-04-15T08:53:28;99438.19;;;18.69;51.84
74722;BME280;63470;49.826;6.740;2023-04-15T08:55:57;99441.70;;;18.97;51.69
74722;BME280;63470;49.826;6.740;2023-04-15T08:58:27;99440.77;;;19.51;51.37
74722;BME280;63470;49.826;6.740;2023-04-15T09:00:58;99440.23;;;20.06;51.19
74722;BME280;63470;49.826;6.740;2023-04-15T09:03:29;99436.88;;;20.44;51.19
74722;BME280;63470;49.826;6.740;2023-04-15T09:05:59;99435.20;;;20.65;51.35
74722;BME280;63470;49.826;6.740;2023-04-15T09:08:30;99435.13;;;20.70;51.54
74722;BME280;63470;49.826;6.740;2023-04-15T09:11:02;99437.94;;;20.54;52.01
74722;BME280;63470;49.826;6.740;2023-04-15T09:13:31;99443.29;;;20.21;52.57
74722;BME280;63470;49.826;6.740;2023-04-15T09:16:04;99449.28;;;20.03;52.79
74722;BME280;63470;49.826;6.740;2023-04-15T09:18:33;99447.58;;;20.26;52.46
74722;BME280;63470;49.826;6.740;2023-04-15T09:21:13;99447.79;;;20.73;52.12
74722;BME280;63470;49.826;6.740;2023-04-15T09:23:35;99444.97;;;21.22;51.80
74722;BME280;63470;49.826;6.740;2023-04-15T09:26:05;99443.12;;;21.64;51.49
74722;BME280;63470;49.826;6.740;2023-04-15T09:28:42;99443.34;;;22.20;51.07
74722;BME280;63470;49.826;6.740;2023-04-15T09:31:06;99442.92;;;22.44;51.02
74722;BME280;63470;49.826;6.740;2023-04-15T09:36:07;99445.28;;;22.88;51.17
74722;BME280;63470;49.826;6.740;2023-04-15T09:38:53;99444.61;;;23.24;51.00
74722;BME280;63470;49.826;6.740;2023-04-15T09:41:16;99446.20;;;23.78;50.64
74722;BME280;63470;49.826;6.740;2023-04-15T09:43:39;99447.55;;;24.12;50.44
74722;BME280;63470;49.826;6.740;2023-04-15T09:46:09;99445.16;;;24.18;50.58
74722;BME280;63470;49.826;6.740;2023-04-15T09:48:40;99452.88;;;24.13;50.78
74722;BME280;63470;49.826;6.740;2023-04-15T09:51:10;99450.48;;;24.11;50.84
74722;BME280;63470;49.826;6.740;2023-04-15T09:53:41;99452.39;;;23.94;51.23
74722;BME280;63470;49.826;6.740;2023-04-15T09:56:11;99454.01;;;23.97;51.33
74722;BME280;63470;49.826;6.740;2023-04-15T09:58:43;99448.25;;;24.23;51.05
74722;BME280;63470;49.826;6.740;2023-04-15T10:01:12;99444.47;;;24.00;51.42
74722;BME280;63470;49.826;6.740;2023-04-15T10:03:44;99443.92;;;23.29;52.24
74722;BME280;63470;49.826;6.740;2023-04-15T10:06:14;99442.88;;;23.17;52.38
74722;BME280;63470;49.826;6.740;2023-04-15T10:08:46;99445.71;;;23.60;51.65
74722;BME280;63470;49.826;6.740;2023-04-15T10:11:16;99453.50;;;23.99;51.18
74722;BME280;63470;49.826;6.740;2023-04-15T10:13:45;99461.38;;;24.14;51.09
74722;BME280;63470;49.826;6.740;2023-04-15T10:16:18;99460.59;;;22.97;52.53
74722;BME280;63470;49.826;6.740;2023-04-15T10:18:47;99462.23;;;21.75;53.97
74722;BME280;63470;49.826;6.740;2023-04-15T10:21:18;99473.66;;;20.68;55.09
74722;BME280;63470;49.826;6.740;2023-04-15T10:23:46;99482.41;;;19.86;55.75
74722;BME280;63470;49.826;6.740;2023-04-15T10:26:17;99481.03;;;19.09;56.08
74722;BME280;63470;49.826;6.740;2023-04-15T10:28:48;99481.45;;;18.55;56.30
74722;BME280;63470;49.826;6.740;2023-04-15T10:31:17;99485.64;;;18.25;56.23
74722;BME280;63470;49.826;6.740;2023-04-15T10:33:48;99487.72;;;18.07;55.92
74722;BME280;63470;49.826;6.740;2023-04-15T10:36:19;99489.93;;;17.89;55.70
74722;BME280;63470;49.826;6.740;2023-04-15T10:38:49;99499.91;;;17.77;55.47
74722;BME280;63470;49.826;6.740;2023-04-15T10:41:23;99501.15;;;17.65;55.25
74722;BME280;63470;49.826;6.740;2023-04-15T10:44:02;99495.83;;;17.66;55.05
74722;BME280;63470;49.826;6.740;2023-04-15T10:46:38;99506.23;;;18.04;54.70
74722;BME280;63470;49.826;6.740;2023-04-15T10:48:52;99506.73;;;18.81;53.72
74722;BME280;63470;49.826;6.740;2023-04-15T10:51:29;99513.27;;;19.66;52.65
74722;BME280;63470;49.826;6.740;2023-04-15T10:53:59;99515.04;;;20.16;51.98
74722;BME280;63470;49.826;6.740;2023-04-15T10:56:23;99516.28;;;20.27;51.82
74722;BME280;63470;49.826;6.740;2023-04-15T10:58:54;99513.31;;;20.35;51.88
74722;BME280;63470;49.826;6.740;2023-04-15T11:03:55;99517.29;;;20.73;51.73
74722;BME280;63470;49.826;6.740;2023-04-15T11:06:42;99515.98;;;20.84;51.60
74722;BME280;63470;49.826;6.740;2023-04-15T11:08:58;99526.20;;;20.97;51.51
74722;BME280;63470;49.826;6.740;2023-04-15T11:12:04;99529.78;;;21.27;51.30
74722;BME280;63470;49.826;6.740;2023-04-15T11:13:57;99528.05;;;21.47;51.23
74722;BME280;63470;49.826;6.740;2023-04-15T11:16:28;99529.41;;;21.50;51.43
74722;BME280;63470;49.826;6.740;2023-04-15T11:18:58;99531.02;;;21.51;51.55
74722;BME280;63470;49.826;6.740;2023-04-15T11:21:29;99542.16;;;21.40;51.75
74722;BME280;63470;49.826;6.740;2023-04-15T11:23:59;99546.39;;;21.05;52.26
74722;BME280;63470;49.826;6.740;2023-04-15T11:26:31;99550.74;;;21.01;52.36
74722;BME280;63470;49.826;6.740;2023-04-15T11:29:01;99548.75;;;20.97;52.51
74722;BME280;63470;49.826;6.740;2023-04-15T11:31:31;99552.95;;;21.14;52.28
74722;BME280;63470;49.826;6.740;2023-04-15T11:34:02;99553.54;;;21.65;51.64
74722;BME280;63470;49.826;6.740;2023-04-15T11:36:32;99554.30;;;21.97;51.25
74722;BME280;63470;49.826;6.740;2023-04-15T11:39:06;99555.12;;;22.03;51.26
74722;BME280;63470;49.826;6.740;2023-04-15T11:41:34;99556.08;;;21.94;51.35
74722;BME280;63470;49.826;6.740;2023-04-15T11:44:15;99563.70;;;21.67;51.76
74722;BME280;63470;49.826;6.740;2023-04-15T11:46:35;99567.52;;;21.41;52.12
74722;BME280;63470;49.826;6.740;2023-04-15T11:49:05;99572.81;;;21.35;52.23
74722;BME280;63470;49.826;6.740;2023-04-15T11:51:36;99573.34;;;21.03;52.39
74722;BME280;63470;49.826;6.740;2023-04-15T11:54:06;99575.98;;;20.73;52.75
74722;BME280;63470;49.826;6.740;2023-04-15T11:56:37;99585.41;;;20.41;52.84
74722;BME280;63470;49.826;6.740;2023-04-15T11:59:07;99589.33;;;20.06;53.13
74722;BME280;63470;49.826;6.740;2023-04-15T12:01:43;99593.55;;;19.92;53.07
74722;BME280;63470;49.826;6.740;2023-04-15T12:04:12;99602.88;;;19.76;53.09
74722;BME280;63470;49.826;6.740;2023-04-15T12:06:39;99601.20;;;19.75;53.12
74722;BME280;63470;49.826;6.740;2023-04-15T12:09:14;99615.03;;;19.71;53.17
74722;BME280;63470;49.826;6.740;2023-04-15T12:11:46;99610.11;;;19.62;53.08
74722;BME280;63470;49.826;6.740;2023-04-15T12:14:26;99622.32;;;19.44;53.20
74722;BME280;63470;49.826;6.740;2023-04-15T12:16:44;99624.17;;;19.34;53.05
74722;BME280;63470;49.826;6.740;2023-04-15T12:19:13;99632.27;;;19.20;53.17
74722;BME280;63470;49.826;6.740;2023-04-15T12:21:44;99635.44;;;19.12;53.06
74722;BME280;63470;49.826;6.740;2023-04-15T12:24:13;99637.43;;;19.07;53.07
74722;BME280;63470;49.826;6.740;2023-04-15T12:26:49;99638.64;;;19.09;52.93
74722;BME280;63470;49.826;6.740;2023-04-15T12:29:16;99646.91;;;18.87;53.08
74722;BME280;63470;49.826;6.740;2023-04-15T12:31:47;99653.01;;;18.80;53.08
74722;BME280;63470;49.826;6.740;2023-04-15T12:34:17;99656.17;;;18.68;53.20
74722;BME280;63470;49.826;6.740;2023-04-15T12:36:46;99667.64;;;18.72;53.00
74722;BME280;63470;49.826;6.740;2023-04-15T12:39:17;99665.23;;;18.71;52.88
74722;BME280;63470;49.826;6.740;2023-04-15T12:41:47;99662.11;;;18.82;52.94
74722;BME280;63470;49.826;6.740;2023-04-15T12:44:18;99666.30;;;19.04;52.67
74722;BME280;63470;49.826;6.740;2023-04-15T12:46:49;99666.43;;;19.19;52.46
74722;BME280;63470;49.826;6.740;2023-04-15T12:49:21;99670.12;;;19.25;52.36
74722;BME280;63470;49.826;6.740;2023-04-15T12:51:55;99670.34;;;19.39;52.28
74722;BME280;63470;49.826;6.740;2023-04-15T12:54:20;99674.26;;;19.26;52.34
74722;BME280;63470;49.826;6.740;2023-04-15T12:56:51;99682.59;;;19.15;52.48
74722;BME280;63470;49.826;6.740;2023-04-15T12:59:23;99685.11;;;19.09;52.64
74722;BME280;63470;49.826;6.740;2023-04-15T13:01:53;99689.55;;;18.90;52.74
74722;BME280;63470;49.826;6.740;2023-04-15T13:04:22;99697.88;;;18.73;53.03
74722;BME280;63470;49.826;6.740;2023-04-15T13:06:52;99697.22;;;18.63;53.03
74722;BME280;63470;49.826;6.740;2023-04-15T13:09:23;99700.66;;;18.51;53.12
74722;BME280;63470;49.826;6.740;2023-04-15T13:11:54;99700.61;;;18.48;53.21
74722;BME280;63470;49.826;6.740;2023-04-15T13:14:24;99700.97;;;18.54;53.11
74722;BME280;63470;49.826;6.740;2023-04-15T13:16:55;99706.36;;;18.61;52.84
74722;BME280;63470;49.826;6.740;2023-04-15T13:19:26;99703.19;;;18.62;52.77
74722;BME280;63470;49.826;6.740;2023-04-15T13:21:55;99704.28;;;18.55;52.75
74722;BME280;63470;49.826;6.740;2023-04-15T13:24:26;99711.40;;;18.41;52.96
74722;BME280;63470;49.826;6.740;2023-04-15T13:26:58;99709.58;;;18.29;53.06
74722;BME280;63470;49.826;6.740;2023-04-15T13:29:27;99716.08;;;18.13;53.20